Portada
METAR-TAF:

METAR-TAF

Aeroports :

Orsk, Rússia

latitud: 51-04-18N, longitud: 058-35-48E, altitud: 277 m

Observació

L'informe es va fer fa 37 minuts, a les 10:00 UTC
Vent 10 kt del Nord/Nord-Oest amb ràfegues de 19 kt
Temperatura 28°C
Humitat 25%
Pressió 1011 hPa
Visibilitat 10 km o més
sense núvols per sota de 1500 mi sense presència de cumulonimbus.

METAR: UWOR 161000Z 34005G10MPS CAVOK 28/06 Q1011 R25/CLRD65 NOSIG RMK QFE735/0980

Hora: 15:37 (10:37 UTC)

Pronòstic

L'informe es va fer fa 2 hores i 50 minuts, a les 07:47 UTC
Pronòstic vàlid del 16 a les 09 UTC al 16 a les 18 UTC
Vent 16 kt del Nord/Nord-Oest amb ràfegues de 25 kt
Visibilitat 10 km o més
Núvols disperses a una alçada de 3000 ft, Cumulonimbus.
Temporalment
l' 16 a les 09 UTC al 16 a les 18 UTC
Vent 17 kt del Nord amb ràfegues de 31 kt

TAF: UWOR 160747Z 1609/1618 33008G13MPS 9999 SCT030CB TEMPO 1609/1618 36009G16MPS

Observacions i pronòstics meteorològics de més de 4000 aeroports (METAR i TAF).

Les estacions disponibles són els punts grocs i vermells al mapa.

Posi el ratolí al punt desitjat per veure el nom de l'estació.

Feu clic per veure les observacions i els pronòstics meteorològics.

Per canviar el mapa: feu clic els botons verds amb una creu de color negre per apropar; al botó verd amb un guió per allunyar la imatge; o en les fletxes verdes per a mapes adjacents.


METAR-TAF: